Destinations Zakynthos International Airport Dionysios Solomos

Zakynthos International Airport Dionysios Solomos (LGZA / ZTH)

Flights to Zakynthos International Airport Dionysios Solomos

Flight number From ETE Dispatch
SPY-2278 EGFF Cardiff International Airport 03:30
SPY-2328 EGFF Cardiff International Airport 03:30
SPY-504 EHGG Groningen Airport Eelde 03:05

Flights from Zakynthos International Airport Dionysios Solomos

Flight number To ETE Dispatch
SPY-2279 EGFF Cardiff International Airport 03:30
SPY-2329 EGFF Cardiff International Airport 03:30
SPY-505 EHGG Groningen Airport Eelde 03:00
About

Zakynthos International Airport Dionysios Solomos facts

Zakynthos International Airport Dionysios Solomos is located in Zakynthos at an elevation of 4.6 meters or 15 feet.

Currently, Speedy Airlines serves 6 flights to and from Zakynthos International Airport Dionysios Solomos.

Detailed airport info

Route map

Weather

Current weather

METAR

METAR

Metar data retrieved Sunday, 21 July 2024 at 20:25 UTC

LGZA 211950Z 00000KT CAVOK 29/18 Q1009
Wind Temperature
0 kt 29c